createdAt,value
2018-11-05T00:02:11.715Z,92.10
2018-11-05T00:07:07.056Z,93.35
2018-11-05T00:12:01.502Z,93.15
2018-11-05T00:16:55.917Z,92.39
2018-11-05T00:21:50.337Z,92.28
2018-11-05T00:26:45.094Z,92.55
2018-11-05T00:31:39.519Z,92.96
2018-11-05T00:36:33.941Z,93.23
2018-11-05T00:41:28.360Z,93.52
2018-11-05T00:46:22.856Z,92.29
2018-11-05T00:51:17.304Z,92.19
2018-11-05T00:56:11.717Z,92.76
2018-11-05T01:01:06.916Z,92.88
2018-11-05T01:06:01.316Z,93.00
2018-11-05T01:10:55.788Z,92.82
2018-11-05T01:15:50.207Z,92.44
2018-11-05T01:20:44.632Z,92.04
2018-11-05T01:25:39.075Z,92.60
2018-11-05T01:30:33.537Z,92.75
2018-11-05T01:35:27.987Z,92.41
2018-11-05T01:40:22.480Z,93.00
2018-11-05T01:45:16.964Z,92.80
2018-11-05T01:50:13.919Z,92.37
2018-11-05T01:55:09.127Z,93.46
2018-11-05T02:00:03.633Z,94.45
2018-11-05T02:04:58.041Z,94.57
2018-11-05T02:09:52.436Z,94.23
2018-11-05T02:14:46.837Z,93.30
2018-11-05T02:19:43.233Z,93.99
2018-11-05T02:24:37.661Z,93.63
2018-11-05T02:29:32.082Z,93.51
2018-11-05T02:34:26.597Z,92.76
2018-11-05T02:39:21.008Z,92.48
2018-11-05T02:44:15.384Z,92.99
2018-11-05T02:49:09.815Z,93.30
2018-11-05T02:54:04.225Z,92.84
2018-11-05T02:58:58.677Z,92.90
2018-11-05T03:03:53.074Z,92.48
2018-11-05T03:08:47.490Z,93.10
2018-11-05T03:13:41.923Z,93.12
2018-11-05T03:18:36.333Z,93.76
2018-11-05T03:23:30.724Z,93.69
2018-11-05T03:28:25.200Z,92.72
2018-11-05T03:33:20.304Z,92.33
2018-11-05T03:38:14.725Z,91.85
2018-11-05T03:43:09.144Z,91.85
2018-11-05T03:48:03.628Z,92.01
2018-11-05T03:52:58.045Z,92.27
2018-11-05T03:57:52.461Z,92.05
2018-11-05T04:02:46.864Z,91.66
2018-11-05T04:07:41.348Z,91.72
2018-11-05T04:12:35.849Z,91.61
2018-11-05T04:17:30.268Z,91.41
2018-11-05T04:22:24.700Z,91.64
2018-11-05T04:27:19.149Z,91.78
2018-11-05T04:32:13.572Z,91.52
2018-11-05T04:37:08.009Z,91.79
2018-11-05T04:42:02.436Z,91.22
2018-11-05T04:46:56.870Z,91.46
2018-11-05T04:51:51.302Z,91.06
2018-11-05T04:56:45.743Z,91.06
2018-11-05T05:01:40.158Z,91.21
2018-11-05T05:06:34.608Z,90.54
2018-11-05T05:11:29.130Z,90.79
2018-11-05T05:16:23.722Z,91.13
2018-11-05T05:21:18.072Z,90.85
2018-11-05T05:26:12.563Z,91.19
2018-11-05T05:31:07.597Z,90.75
2018-11-05T05:36:02.007Z,91.12
2018-11-05T05:40:56.484Z,91.09
2018-11-05T05:45:50.819Z,90.96
2018-11-05T05:50:45.229Z,89.27
2018-11-05T05:55:39.700Z,90.92
2018-11-05T06:00:34.203Z,91.07
2018-11-05T06:05:28.673Z,90.29
2018-11-05T06:10:23.352Z,91.04
2018-11-05T06:15:18.278Z,90.93
2018-11-05T06:20:16.662Z,90.99
2018-11-05T06:25:11.111Z,90.83
2018-11-05T06:30:11.738Z,90.73
2018-11-05T06:35:07.346Z,90.44
2018-11-05T06:40:01.842Z,90.95
2018-11-05T06:44:57.830Z,90.98
2018-11-05T06:49:54.363Z,90.54
2018-11-05T06:54:48.881Z,90.21
2018-11-05T06:59:43.298Z,89.92
2018-11-05T07:04:37.984Z,89.10
2018-11-05T07:09:32.650Z,89.17
2018-11-05T07:14:27.071Z,90.60
2018-11-05T07:19:21.566Z,91.30
2018-11-05T07:24:16.040Z,92.63
2018-11-05T07:29:10.703Z,92.31
2018-11-05T07:34:06.400Z,91.95
2018-11-05T07:39:01.266Z,92.33
2018-11-05T07:43:56.289Z,91.82
2018-11-05T07:48:50.708Z,92.76
2018-11-05T07:53:46.674Z,92.98
2018-11-05T07:58:41.625Z,93.06
2018-11-05T08:03:36.159Z,92.08
2018-11-05T08:08:31.305Z,91.59
2018-11-05T08:13:25.756Z,91.42
2018-11-05T08:18:20.243Z,92.59
2018-11-05T08:23:15.337Z,92.48
2018-11-05T08:28:10.076Z,91.04
2018-11-05T08:33:10.045Z,90.18
2018-11-05T08:38:06.060Z,89.10
2018-11-05T08:43:00.838Z,88.03
2018-11-05T08:47:55.628Z,88.58
2018-11-05T08:52:50.149Z,87.95
2018-11-05T08:57:45.034Z,87.24
2018-11-05T09:02:39.595Z,87.12
2018-11-05T09:07:34.100Z,87.19
2018-11-05T09:12:28.756Z,86.48
2018-11-05T09:17:23.226Z,87.69
2018-11-05T09:22:18.577Z,86.26
2018-11-05T09:27:13.432Z,87.17
2018-11-05T09:32:08.252Z,86.54
2018-11-05T09:37:03.242Z,86.06
2018-11-05T09:41:59.409Z,85.82
2018-11-05T09:46:54.072Z,85.01
2018-11-05T09:51:49.451Z,83.62
2018-11-05T09:56:44.244Z,83.64
2018-11-05T10:01:46.379Z,83.58
2018-11-05T10:06:46.616Z,82.95
2018-11-05T10:12:01.684Z,82.30
2018-11-05T10:17:05.573Z,82.18
2018-11-05T10:22:00.756Z,81.69
2018-11-05T10:26:57.975Z,80.75
2018-11-05T10:31:57.046Z,79.47
2018-11-05T10:36:54.991Z,80.26
2018-11-05T10:41:54.209Z,79.89
2018-11-05T10:46:54.799Z,78.21
2018-11-05T10:51:59.352Z,77.15
2018-11-05T10:57:04.728Z,75.58
2018-11-05T11:02:10.530Z,76.93
2018-11-05T11:07:10.509Z,76.58
2018-11-05T11:12:10.966Z,74.75
2018-11-05T11:17:28.578Z,74.17
2018-11-05T11:22:27.748Z,75.37
2018-11-05T11:27:25.382Z,75.19
2018-11-05T11:32:19.884Z,75.44
2018-11-05T11:37:14.530Z,75.92
2018-11-05T11:42:09.130Z,75.87
2018-11-05T11:47:03.746Z,76.94
2018-11-05T11:51:58.402Z,77.39
2018-11-05T11:56:53.153Z,77.51
2018-11-05T12:01:56.749Z,76.62
2018-11-05T12:06:51.429Z,74.57
2018-11-05T12:11:46.289Z,73.93
2018-11-05T12:16:58.153Z,73.43
2018-11-05T12:22:03.707Z,72.94
2018-11-05T12:27:05.998Z,73.03
2018-11-05T12:32:02.481Z,73.86
2018-11-05T12:36:58.179Z,74.67
2018-11-05T12:41:55.464Z,75.62
2018-11-05T12:46:50.168Z,76.21
2018-11-05T12:51:44.664Z,76.29
2018-11-05T12:56:39.352Z,76.70
2018-11-05T13:01:33.952Z,77.32
2018-11-05T13:06:29.345Z,76.88
2018-11-05T13:11:23.956Z,78.26
2018-11-05T13:16:18.497Z,77.46
2018-11-05T13:21:13.288Z,77.09
2018-11-05T13:26:08.940Z,76.80
2018-11-05T13:31:03.562Z,77.57
2018-11-05T13:35:58.249Z,77.12
2018-11-05T13:41:00.300Z,77.75
2018-11-05T13:45:55.558Z,76.30
2018-11-05T13:50:50.320Z,76.71
2018-11-05T13:55:49.325Z,75.87
2018-11-05T14:00:44.016Z,75.84
2018-11-05T14:05:38.671Z,76.09
2018-11-05T14:10:43.464Z,75.89
2018-11-05T14:15:38.276Z,73.75
2018-11-05T14:20:32.753Z,73.37
2018-11-05T14:25:30.594Z,72.85
2018-11-05T14:30:28.865Z,71.61
2018-11-05T14:35:28.495Z,71.76
2018-11-05T14:40:23.316Z,72.53
2018-11-05T14:45:19.908Z,72.37
2018-11-05T14:50:19.837Z,72.23
2018-11-05T14:55:17.498Z,72.17
2018-11-05T15:00:16.424Z,72.71
2018-11-05T15:05:12.422Z,73.18
2018-11-05T15:10:10.453Z,74.42
2018-11-05T15:15:06.870Z,74.80
2018-11-05T15:20:02.644Z,74.71
2018-11-05T15:24:56.880Z,75.95
2018-11-05T15:29:51.359Z,76.41
2018-11-05T15:34:45.893Z,77.63
2018-11-05T15:39:40.468Z,78.01
2018-11-05T15:44:35.082Z,79.33
2018-11-05T15:49:29.688Z,79.89
2018-11-05T15:54:24.231Z,81.02
2018-11-05T15:59:18.669Z,82.16
2018-11-05T16:04:13.551Z,82.94
2018-11-05T16:09:09.433Z,83.53
2018-11-05T16:14:03.983Z,83.87
2018-11-05T16:18:59.277Z,84.81
2018-11-05T16:23:53.812Z,85.40
2018-11-05T16:28:57.077Z,86.10
2018-11-05T16:33:51.504Z,86.91
2018-11-05T16:38:48.055Z,87.63
2018-11-05T16:43:42.516Z,88.10
2018-11-05T16:48:36.936Z,88.37
2018-11-05T16:53:31.415Z,88.61
2018-11-05T16:58:26.428Z,88.15
2018-11-05T17:03:21.912Z,89.25
2018-11-05T17:08:16.476Z,88.86
2018-11-05T17:13:11.092Z,90.27
2018-11-05T17:18:05.811Z,90.20
2018-11-05T17:23:00.228Z,89.98
2018-11-05T17:27:54.616Z,91.65
2018-11-05T17:32:49.136Z,90.70
2018-11-05T17:37:43.913Z,90.38
2018-11-05T17:42:38.649Z,90.56
2018-11-05T17:47:33.048Z,90.41
2018-11-05T17:52:27.490Z,91.28
2018-11-05T17:57:21.929Z,91.04
2018-11-05T18:02:21.550Z,91.02
2018-11-05T18:07:15.976Z,91.48
2018-11-05T18:12:10.534Z,92.88
2018-11-05T18:17:05.252Z,92.68
2018-11-05T18:21:59.671Z,92.19
2018-11-05T18:26:54.074Z,91.85
2018-11-05T18:31:48.610Z,91.56
2018-11-05T18:36:43.136Z,92.01
2018-11-05T18:41:37.638Z,92.00
2018-11-05T18:46:32.068Z,93.70
2018-11-05T18:51:26.548Z,93.34
2018-11-05T18:56:21.068Z,94.03
2018-11-05T19:01:15.504Z,92.80
2018-11-05T19:06:09.941Z,92.00
2018-11-05T19:11:04.580Z,93.31
2018-11-05T19:15:59.063Z,93.31
2018-11-05T19:20:53.644Z,92.90
2018-11-05T19:25:48.106Z,93.21
2018-11-05T19:30:42.710Z,92.57
2018-11-05T19:35:37.008Z,91.75
2018-11-05T19:40:31.499Z,93.34
2018-11-05T19:45:25.962Z,93.18
2018-11-05T19:50:21.778Z,92.88
2018-11-05T19:55:17.026Z,92.85
2018-11-05T20:00:16.187Z,92.54
2018-11-05T20:05:10.565Z,91.92
2018-11-05T20:10:05.784Z,93.57
2018-11-05T20:15:00.505Z,92.35
2018-11-05T20:19:54.860Z,92.24
2018-11-05T20:24:49.315Z,90.85
2018-11-05T20:29:43.742Z,91.55
2018-11-05T20:34:38.307Z,92.45
2018-11-05T20:39:32.698Z,91.88
2018-11-05T20:44:27.128Z,92.99
2018-11-05T20:49:21.636Z,92.98
2018-11-05T20:54:16.051Z,93.54
2018-11-05T20:59:10.452Z,93.39
2018-11-05T21:04:04.917Z,92.92
2018-11-05T21:08:59.312Z,93.12
2018-11-05T21:13:53.725Z,94.06
2018-11-05T21:18:48.156Z,93.43
2018-11-05T21:23:42.592Z,92.80
2018-11-05T21:28:37.011Z,91.68
2018-11-05T21:33:31.428Z,92.77
2018-11-05T21:38:25.826Z,92.16
2018-11-05T21:43:20.216Z,92.08
2018-11-05T21:48:14.639Z,91.87
2018-11-05T21:53:09.049Z,91.07
2018-11-05T21:58:03.464Z,90.59
2018-11-05T22:02:59.384Z,93.44
2018-11-05T22:07:53.807Z,94.00
2018-11-05T22:12:48.680Z,94.54
2018-11-05T22:17:43.177Z,95.38
2018-11-05T22:22:37.912Z,95.87
2018-11-05T22:27:32.365Z,96.63
2018-11-05T22:32:26.928Z,96.56
2018-11-05T22:37:21.504Z,97.04
2018-11-05T22:42:15.878Z,96.75
2018-11-05T22:47:10.332Z,95.87
2018-11-05T22:52:05.361Z,96.23
2018-11-05T22:56:59.744Z,95.50
2018-11-05T23:01:55.146Z,96.48
2018-11-05T23:06:50.215Z,97.29
2018-11-05T23:11:44.647Z,97.16
2018-11-05T23:16:39.153Z,97.82
2018-11-05T23:21:33.567Z,98.28
2018-11-05T23:26:27.970Z,98.26
2018-11-05T23:31:22.465Z,97.99
2018-11-05T23:36:16.871Z,98.39
2018-11-05T23:41:11.603Z,98.36
2018-11-05T23:46:06.084Z,98.02
2018-11-05T23:51:00.474Z,97.82
2018-11-05T23:55:54.896Z,98.01
